Terminal Aerodrome Forecast
Issued by NWS

Home | Current Version | Previous Version | Text Only | Print | Product List | Glossary On
Versions: 1 2 3 4 5 6 7 8 9 10 11 12 13
127
FTUS42 KMLB 240540
TAFSFB
TAF
KSFB 240540Z 2406/2506 VRB04KT P6SM FEW050 SCT070
     FM241400 12007KT P6SM SCT040 SCT250
     FM242000 10012KT P6SM SCT050 SCT250
     FM250100 11005KT P6SM SCT060 SCT250=

USA.gov is the U.S. government's official web portal to all federal, state and local government web resources and services.